Aviation Digital Data Service (ADDS)

Output produced by METARs form (0557 UTC 26 October 2014)
found at http://aviationweather.gov/adds/metars/
 
KLEB 260520Z 2606/2706 VRB03KT P6SM SCT070 BKN120 
     FM260700 27006KT P6SM -SHRA BKN050 BKN080 
     FM261000 29010KT P6SM BKN040 OVC060 
     FM262300 31005KT P6SM BKN050